sensor_id;sensor_type;location;lat;lon;timestamp;pressure;altitude;pressure_sealevel;temperature;humidity
26775;BME280;14362;51.902;7.626;2023-05-08T00:02:18;101473.66;;;13.51;100.00
26775;BME280;14362;51.902;7.626;2023-05-08T00:06:20;101467.75;;;13.52;100.00
26775;BME280;14362;51.902;7.626;2023-05-08T00:10:21;101465.59;;;13.49;100.00
26775;BME280;14362;51.902;7.626;2023-05-08T00:14:23;101454.41;;;13.49;100.00
26775;BME280;14362;51.902;7.626;2023-05-08T00:18:25;101472.16;;;13.36;100.00
26775;BME280;14362;51.902;7.626;2023-05-08T00:22:27;101475.13;;;13.31;100.00
26775;BME280;14362;51.902;7.626;2023-05-08T00:26:28;101476.09;;;13.27;100.00
26775;BME280;14362;51.902;7.626;2023-05-08T00:30:30;101465.38;;;13.21;100.00
26775;BME280;14362;51.902;7.626;2023-05-08T00:34:32;101471.28;;;13.19;100.00
26775;BME280;14362;51.902;7.626;2023-05-08T00:38:35;101463.19;;;13.09;100.00
26775;BME280;14362;51.902;7.626;2023-05-08T00:42:37;101459.25;;;13.10;100.00
26775;BME280;14362;51.902;7.626;2023-05-08T00:46:39;101464.47;;;13.03;100.00
26775;BME280;14362;51.902;7.626;2023-05-08T00:50:42;101466.94;;;13.05;100.00
26775;BME280;14362;51.902;7.626;2023-05-08T00:54:44;101459.88;;;13.07;100.00
26775;BME280;14362;51.902;7.626;2023-05-08T00:58:46;101458.69;;;13.00;100.00
26775;BME280;14362;51.902;7.626;2023-05-08T01:02:48;101464.94;;;12.97;100.00
26775;BME280;14362;51.902;7.626;2023-05-08T01:06:51;101456.84;;;12.95;100.00
26775;BME280;14362;51.902;7.626;2023-05-08T01:11:05;101456.03;;;12.95;100.00
26775;BME280;14362;51.902;7.626;2023-05-08T01:15:11;101459.13;;;12.93;100.00
26775;BME280;14362;51.902;7.626;2023-05-08T01:19:31;101459.81;;;12.90;100.00
26775;BME280;14362;51.902;7.626;2023-05-08T01:23:57;101466.00;;;12.87;100.00
26775;BME280;14362;51.902;7.626;2023-05-08T01:28:25;101463.53;;;12.86;100.00
26775;BME280;14362;51.902;7.626;2023-05-08T01:32:35;101465.00;;;12.83;100.00
26775;BME280;14362;51.902;7.626;2023-05-08T01:36:43;101463.47;;;12.77;100.00
26775;BME280;14362;51.902;7.626;2023-05-08T01:40:52;101465.47;;;12.77;100.00
26775;BME280;14362;51.902;7.626;2023-05-08T01:44:59;101458.84;;;12.73;100.00
26775;BME280;14362;51.902;7.626;2023-05-08T01:49:05;101454.38;;;12.63;100.00
26775;BME280;14362;51.902;7.626;2023-05-08T01:53:12;101459.78;;;12.60;100.00
26775;BME280;14362;51.902;7.626;2023-05-08T01:57:17;101458.75;;;12.56;100.00
26775;BME280;14362;51.902;7.626;2023-05-08T02:01:21;101463.22;;;12.57;100.00
26775;BME280;14362;51.902;7.626;2023-05-08T02:05:27;101468.13;;;12.51;100.00
26775;BME280;14362;51.902;7.626;2023-05-08T02:09:29;101470.19;;;12.46;100.00
26775;BME280;14362;51.902;7.626;2023-05-08T02:13:32;101469.06;;;12.47;100.00
26775;BME280;14362;51.902;7.626;2023-05-08T02:17:36;101467.56;;;12.41;100.00
26775;BME280;14362;51.902;7.626;2023-05-08T02:21:43;101466.72;;;12.40;100.00
26775;BME280;14362;51.902;7.626;2023-05-08T02:25:46;101473.09;;;12.32;100.00
26775;BME280;14362;51.902;7.626;2023-05-08T02:29:49;101467.28;;;12.29;100.00
26775;BME280;14362;51.902;7.626;2023-05-08T02:33:52;101470.75;;;12.26;100.00
26775;BME280;14362;51.902;7.626;2023-05-08T02:37:56;101475.81;;;12.24;100.00
26775;BME280;14362;51.902;7.626;2023-05-08T02:41:58;101471.88;;;12.25;100.00
26775;BME280;14362;51.902;7.626;2023-05-08T02:46:08;101473.66;;;12.21;100.00
26775;BME280;14362;51.902;7.626;2023-05-08T02:50:15;101467.03;;;12.17;100.00
26775;BME280;14362;51.902;7.626;2023-05-08T02:54:23;101471.81;;;12.17;100.00
26775;BME280;14362;51.902;7.626;2023-05-08T02:58:30;101472.63;;;12.17;100.00
26775;BME280;14362;51.902;7.626;2023-05-08T03:02:38;101471.16;;;12.20;100.00
26775;BME280;14362;51.902;7.626;2023-05-08T03:06:44;101468.81;;;12.13;100.00
26775;BME280;14362;51.902;7.626;2023-05-08T03:10:50;101466.03;;;12.13;100.00
26775;BME280;14362;51.902;7.626;2023-05-08T03:14:56;101465.00;;;12.09;100.00
26775;BME280;14362;51.902;7.626;2023-05-08T03:19:04;101464.53;;;12.07;100.00
26775;BME280;14362;51.902;7.626;2023-05-08T03:23:07;101466.47;;;12.07;100.00
26775;BME280;14362;51.902;7.626;2023-05-08T03:27:12;101468.22;;;12.03;100.00
26775;BME280;14362;51.902;7.626;2023-05-08T03:31:16;101455.22;;;11.98;100.00
26775;BME280;14362;51.902;7.626;2023-05-08T03:35:20;101457.00;;;11.94;100.00
26775;BME280;14362;51.902;7.626;2023-05-08T03:39:24;101454.41;;;11.98;100.00
26775;BME280;14362;51.902;7.626;2023-05-08T03:43:27;101449.31;;;12.00;100.00
26775;BME280;14362;51.902;7.626;2023-05-08T03:47:30;101453.25;;;11.99;100.00
26775;BME280;14362;51.902;7.626;2023-05-08T03:51:31;101444.69;;;11.95;100.00
26775;BME280;14362;51.902;7.626;2023-05-08T03:55:33;101451.63;;;11.98;100.00
26775;BME280;14362;51.902;7.626;2023-05-08T03:59:43;101451.22;;;11.91;100.00
26775;BME280;14362;51.902;7.626;2023-05-08T04:03:53;101452.97;;;11.87;100.00
26775;BME280;14362;51.902;7.626;2023-05-08T04:07:59;101465.38;;;11.94;100.00
26775;BME280;14362;51.902;7.626;2023-05-08T04:12:08;101455.66;;;11.92;100.00
26775;BME280;14362;51.902;7.626;2023-05-08T04:16:18;101460.94;;;11.93;100.00
26775;BME280;14362;51.902;7.626;2023-05-08T04:20:24;101458.00;;;11.98;100.00
26775;BME280;14362;51.902;7.626;2023-05-08T04:24:27;101466.22;;;11.95;100.00
26775;BME280;14362;51.902;7.626;2023-05-08T04:28:29;101461.78;;;11.94;100.00
26775;BME280;14362;51.902;7.626;2023-05-08T04:32:32;101463.94;;;11.97;100.00
26775;BME280;14362;51.902;7.626;2023-05-08T04:36:34;101472.00;;;11.98;100.00
26775;BME280;14362;51.902;7.626;2023-05-08T04:40:35;101472.63;;;11.95;100.00
26775;BME280;14362;51.902;7.626;2023-05-08T04:44:37;101486.13;;;12.02;100.00
26775;BME280;14362;51.902;7.626;2023-05-08T04:48:39;101489.88;;;11.97;100.00
26775;BME280;14362;51.902;7.626;2023-05-08T04:52:41;101495.38;;;12.02;100.00
26775;BME280;14362;51.902;7.626;2023-05-08T04:56:42;101501.84;;;12.11;100.00
26775;BME280;14362;51.902;7.626;2023-05-08T05:00:44;101498.94;;;12.16;100.00
26775;BME280;14362;51.902;7.626;2023-05-08T05:04:46;101504.28;;;12.26;100.00
26775;BME280;14362;51.902;7.626;2023-05-08T05:08:48;101507.91;;;12.26;100.00
26775;BME280;14362;51.902;7.626;2023-05-08T05:12:49;101520.41;;;12.29;100.00
26775;BME280;14362;51.902;7.626;2023-05-08T05:16:51;101517.19;;;12.35;100.00
26775;BME280;14362;51.902;7.626;2023-05-08T05:20:56;101516.16;;;12.53;100.00
26775;BME280;14362;51.902;7.626;2023-05-08T05:24:58;101513.59;;;12.65;100.00
26775;BME280;14362;51.902;7.626;2023-05-08T05:28:59;101516.00;;;12.80;100.00
26775;BME280;14362;51.902;7.626;2023-05-08T05:33:01;101514.97;;;12.98;100.00
26775;BME280;14362;51.902;7.626;2023-05-08T05:37:03;101513.03;;;12.99;100.00
26775;BME280;14362;51.902;7.626;2023-05-08T05:41:05;101516.19;;;13.14;100.00
26775;BME280;14362;51.902;7.626;2023-05-08T05:45:07;101515.19;;;12.80;100.00
26775;BME280;14362;51.902;7.626;2023-05-08T05:49:08;101520.56;;;12.76;100.00
26775;BME280;14362;51.902;7.626;2023-05-08T05:53:12;101522.09;;;12.82;100.00
26775;BME280;14362;51.902;7.626;2023-05-08T05:57:14;101527.88;;;12.86;100.00
26775;BME280;14362;51.902;7.626;2023-05-08T06:01:19;101525.53;;;12.79;100.00
26775;BME280;14362;51.902;7.626;2023-05-08T06:05:23;101524.91;;;12.82;100.00
26775;BME280;14362;51.902;7.626;2023-05-08T06:09:26;101524.50;;;12.75;100.00
26775;BME280;14362;51.902;7.626;2023-05-08T06:13:27;101521.13;;;12.87;100.00
26775;BME280;14362;51.902;7.626;2023-05-08T06:17:29;101521.41;;;12.99;100.00
26775;BME280;14362;51.902;7.626;2023-05-08T06:21:30;101517.78;;;12.98;100.00
26775;BME280;14362;51.902;7.626;2023-05-08T06:25:34;101522.59;;;13.06;100.00
26775;BME280;14362;51.902;7.626;2023-05-08T06:29:36;101521.16;;;13.17;100.00
26775;BME280;14362;51.902;7.626;2023-05-08T06:33:37;101517.59;;;13.25;100.00
26775;BME280;14362;51.902;7.626;2023-05-08T06:37:39;101524.53;;;13.36;100.00
26775;BME280;14362;51.902;7.626;2023-05-08T06:41:42;101528.50;;;13.43;100.00
26775;BME280;14362;51.902;7.626;2023-05-08T06:45:44;101518.50;;;13.59;100.00
26775;BME280;14362;51.902;7.626;2023-05-08T06:49:45;101512.59;;;13.61;100.00
26775;BME280;14362;51.902;7.626;2023-05-08T06:53:48;101500.28;;;13.79;100.00
26775;BME280;14362;51.902;7.626;2023-05-08T06:57:51;101501.44;;;13.95;100.00
26775;BME280;14362;51.902;7.626;2023-05-08T07:01:52;101497.50;;;14.04;100.00
26775;BME280;14362;51.902;7.626;2023-05-08T07:05:54;101503.47;;;14.20;100.00
26775;BME280;14362;51.902;7.626;2023-05-08T07:09:55;101502.97;;;14.34;100.00
26775;BME280;14362;51.902;7.626;2023-05-08T07:13:58;101500.31;;;14.46;100.00
26775;BME280;14362;51.902;7.626;2023-05-08T07:18:00;101498.97;;;14.61;100.00
26775;BME280;14362;51.902;7.626;2023-05-08T07:22:01;101493.50;;;14.73;100.00
26775;BME280;14362;51.902;7.626;2023-05-08T07:26:03;101507.81;;;14.88;100.00
26775;BME280;14362;51.902;7.626;2023-05-08T07:30:07;101518.38;;;15.00;100.00
26775;BME280;14362;51.902;7.626;2023-05-08T07:34:09;101514.19;;;15.14;100.00
26775;BME280;14362;51.902;7.626;2023-05-08T07:38:10;101519.63;;;15.11;100.00
26775;BME280;14362;51.902;7.626;2023-05-08T07:42:12;101519.28;;;15.21;100.00
26775;BME280;14362;51.902;7.626;2023-05-08T07:46:17;101516.75;;;15.44;100.00
26775;BME280;14362;51.902;7.626;2023-05-08T07:50:20;101524.00;;;15.45;100.00
26775;BME280;14362;51.902;7.626;2023-05-08T07:54:21;101533.34;;;15.58;100.00
26775;BME280;14362;51.902;7.626;2023-05-08T07:58:23;101524.41;;;15.64;100.00
26775;BME280;14362;51.902;7.626;2023-05-08T08:02:25;101515.09;;;15.72;100.00
26775;BME280;14362;51.902;7.626;2023-05-08T08:06:27;101524.25;;;15.90;100.00
26775;BME280;14362;51.902;7.626;2023-05-08T08:10:29;101521.94;;;16.12;100.00
26775;BME280;14362;51.902;7.626;2023-05-08T08:14:30;101527.25;;;16.34;100.00
26775;BME280;14362;51.902;7.626;2023-05-08T08:18:34;101525.44;;;16.50;100.00
26775;BME280;14362;51.902;7.626;2023-05-08T08:22:36;101520.97;;;16.69;100.00
26775;BME280;14362;51.902;7.626;2023-05-08T08:26:38;101530.34;;;17.06;100.00
26775;BME280;14362;51.902;7.626;2023-05-08T08:30:39;101527.78;;;17.13;100.00
26775;BME280;14362;51.902;7.626;2023-05-08T08:34:42;101522.25;;;17.16;100.00
26775;BME280;14362;51.902;7.626;2023-05-08T08:38:43;101519.38;;;17.37;100.00
26775;BME280;14362;51.902;7.626;2023-05-08T08:42:45;101516.94;;;17.71;100.00
26775;BME280;14362;51.902;7.626;2023-05-08T08:46:50;101521.97;;;17.77;100.00
26775;BME280;14362;51.902;7.626;2023-05-08T08:50:55;101525.84;;;17.97;100.00
26775;BME280;14362;51.902;7.626;2023-05-08T08:54:59;101521.16;;;18.01;100.00
26775;BME280;14362;51.902;7.626;2023-05-08T08:59:02;101530.16;;;18.18;100.00
26775;BME280;14362;51.902;7.626;2023-05-08T09:03:05;101531.81;;;18.19;100.00
26775;BME280;14362;51.902;7.626;2023-05-08T09:07:08;101531.00;;;18.19;100.00
26775;BME280;14362;51.902;7.626;2023-05-08T09:11:10;101532.16;;;18.30;100.00
26775;BME280;14362;51.902;7.626;2023-05-08T09:15:12;101525.91;;;18.36;100.00
26775;BME280;14362;51.902;7.626;2023-05-08T09:19:13;101532.53;;;18.28;100.00
26775;BME280;14362;51.902;7.626;2023-05-08T09:23:17;101522.47;;;18.43;100.00
26775;BME280;14362;51.902;7.626;2023-05-08T09:27:20;101522.44;;;18.54;100.00
26775;BME280;14362;51.902;7.626;2023-05-08T09:31:33;101519.66;;;18.70;100.00
26775;BME280;14362;51.902;7.626;2023-05-08T09:35:35;101526.94;;;18.71;100.00
26775;BME280;14362;51.902;7.626;2023-05-08T09:39:38;101520.84;;;18.69;100.00
26775;BME280;14362;51.902;7.626;2023-05-08T09:43:43;101522.91;;;18.84;100.00
26775;BME280;14362;51.902;7.626;2023-05-08T09:47:47;101521.28;;;18.98;100.00
26775;BME280;14362;51.902;7.626;2023-05-08T09:51:51;101529.09;;;19.17;100.00
26775;BME280;14362;51.902;7.626;2023-05-08T09:55:55;101528.13;;;19.40;100.00
26775;BME280;14362;51.902;7.626;2023-05-08T10:00:00;101527.31;;;19.40;100.00
26775;BME280;14362;51.902;7.626;2023-05-08T10:04:02;101524.56;;;19.58;100.00
26775;BME280;14362;51.902;7.626;2023-05-08T10:08:17;101534.84;;;19.66;100.00
26775;BME280;14362;51.902;7.626;2023-05-08T10:12:20;101529.13;;;19.78;100.00
26775;BME280;14362;51.902;7.626;2023-05-08T10:16:21;101527.72;;;19.88;100.00
26775;BME280;14362;51.902;7.626;2023-05-08T10:20:24;101524.25;;;19.94;100.00
26775;BME280;14362;51.902;7.626;2023-05-08T10:24:32;101533.75;;;19.86;100.00
26775;BME280;14362;51.902;7.626;2023-05-08T10:28:38;101531.03;;;19.90;100.00
26775;BME280;14362;51.902;7.626;2023-05-08T10:32:42;101527.47;;;19.77;100.00
26775;BME280;14362;51.902;7.626;2023-05-08T10:36:45;101528.75;;;19.64;100.00
26775;BME280;14362;51.902;7.626;2023-05-08T10:40:47;101530.03;;;19.67;100.00
26775;BME280;14362;51.902;7.626;2023-05-08T10:44:51;101524.25;;;19.63;100.00
26775;BME280;14362;51.902;7.626;2023-05-08T10:48:59;101521.91;;;19.65;100.00
26775;BME280;14362;51.902;7.626;2023-05-08T10:53:06;101518.81;;;19.70;100.00
26775;BME280;14362;51.902;7.626;2023-05-08T10:57:09;101520.44;;;19.71;100.00
26775;BME280;14362;51.902;7.626;2023-05-08T11:01:14;101509.97;;;19.72;100.00
26775;BME280;14362;51.902;7.626;2023-05-08T11:05:16;101516.03;;;19.89;100.00
26775;BME280;14362;51.902;7.626;2023-05-08T11:09:19;101513.31;;;19.77;100.00
26775;BME280;14362;51.902;7.626;2023-05-08T11:13:26;101513.13;;;19.70;100.00
26775;BME280;14362;51.902;7.626;2023-05-08T11:17:29;101509.56;;;19.89;100.00
26775;BME280;14362;51.902;7.626;2023-05-08T11:21:31;101506.34;;;19.90;100.00
26775;BME280;14362;51.902;7.626;2023-05-08T11:25:42;101502.63;;;20.02;100.00
26775;BME280;14362;51.902;7.626;2023-05-08T11:29:43;101487.59;;;20.17;100.00
26775;BME280;14362;51.902;7.626;2023-05-08T11:33:51;101490.91;;;20.38;100.00
26775;BME280;14362;51.902;7.626;2023-05-08T11:38:13;101489.66;;;20.54;100.00
26775;BME280;14362;51.902;7.626;2023-05-08T11:42:33;101489.72;;;20.58;100.00
26775;BME280;14362;51.902;7.626;2023-05-08T11:46:39;101484.03;;;20.76;100.00
26775;BME280;14362;51.902;7.626;2023-05-08T11:50:43;101492.03;;;20.71;100.00
26775;BME280;14362;51.902;7.626;2023-05-08T11:54:44;101474.50;;;20.65;100.00
26775;BME280;14362;51.902;7.626;2023-05-08T11:58:46;101481.03;;;20.69;100.00
26775;BME280;14362;51.902;7.626;2023-05-08T12:02:47;101482.31;;;20.91;100.00
26775;BME280;14362;51.902;7.626;2023-05-08T12:06:56;101483.63;;;20.78;100.00
26775;BME280;14362;51.902;7.626;2023-05-08T12:10:58;101484.47;;;20.78;100.00
26775;BME280;14362;51.902;7.626;2023-05-08T12:15:00;101483.66;;;20.59;100.00
26775;BME280;14362;51.902;7.626;2023-05-08T12:19:01;101485.16;;;20.53;100.00
26775;BME280;14362;51.902;7.626;2023-05-08T12:23:04;101481.72;;;20.63;100.00
26775;BME280;14362;51.902;7.626;2023-05-08T12:27:06;101476.94;;;20.67;100.00
26775;BME280;14362;51.902;7.626;2023-05-08T12:31:07;101477.75;;;20.67;100.00
26775;BME280;14362;51.902;7.626;2023-05-08T12:35:10;101479.41;;;20.68;100.00
26775;BME280;14362;51.902;7.626;2023-05-08T12:39:15;101481.88;;;20.51;100.00
26775;BME280;14362;51.902;7.626;2023-05-08T12:43:17;101476.81;;;20.41;100.00
26775;BME280;14362;51.902;7.626;2023-05-08T12:47:18;101469.13;;;20.42;100.00
26775;BME280;14362;51.902;7.626;2023-05-08T12:51:20;101465.19;;;20.46;100.00
26775;BME280;14362;51.902;7.626;2023-05-08T12:55:24;101468.31;;;20.41;100.00
26775;BME280;14362;51.902;7.626;2023-05-08T12:59:30;101461.38;;;20.39;100.00
26775;BME280;14362;51.902;7.626;2023-05-08T13:03:32;101460.13;;;20.36;100.00
26775;BME280;14362;51.902;7.626;2023-05-08T13:07:34;101460.03;;;20.33;100.00
26775;BME280;14362;51.902;7.626;2023-05-08T13:11:37;101469.66;;;20.28;100.00
26775;BME280;14362;51.902;7.626;2023-05-08T13:15:38;101458.16;;;20.21;100.00
26775;BME280;14362;51.902;7.626;2023-05-08T13:19:40;101466.97;;;20.16;100.00
26775;BME280;14362;51.902;7.626;2023-05-08T13:23:41;101455.78;;;20.23;100.00
26775;BME280;14362;51.902;7.626;2023-05-08T13:27:44;101459.06;;;20.25;100.00
26775;BME280;14362;51.902;7.626;2023-05-08T13:31:46;101461.91;;;20.25;100.00
26775;BME280;14362;51.902;7.626;2023-05-08T13:35:47;101455.44;;;20.25;100.00
26775;BME280;14362;51.902;7.626;2023-05-08T13:39:48;101463.47;;;20.23;100.00
26775;BME280;14362;51.902;7.626;2023-05-08T13:43:51;101462.13;;;20.17;100.00
26775;BME280;14362;51.902;7.626;2023-05-08T13:47:53;101463.22;;;20.12;100.00
26775;BME280;14362;51.902;7.626;2023-05-08T13:51:54;101467.25;;;20.11;100.00
26775;BME280;14362;51.902;7.626;2023-05-08T13:55:56;101461.00;;;20.21;100.00
26775;BME280;14362;51.902;7.626;2023-05-08T13:59:58;101456.00;;;20.34;100.00
26775;BME280;14362;51.902;7.626;2023-05-08T14:04:00;101462.19;;;20.39;100.00
26775;BME280;14362;51.902;7.626;2023-05-08T14:08:02;101451.53;;;20.52;100.00
26775;BME280;14362;51.902;7.626;2023-05-08T14:12:03;101445.56;;;20.57;100.00
26775;BME280;14362;51.902;7.626;2023-05-08T14:16:07;101436.34;;;20.60;100.00
26775;BME280;14362;51.902;7.626;2023-05-08T14:20:10;101438.69;;;20.76;100.00
26775;BME280;14362;51.902;7.626;2023-05-08T14:24:12;101443.75;;;20.86;100.00
26775;BME280;14362;51.902;7.626;2023-05-08T14:28:13;101429.97;;;20.85;100.00
26775;BME280;14362;51.902;7.626;2023-05-08T14:32:16;101427.66;;;20.71;100.00
26775;BME280;14362;51.902;7.626;2023-05-08T14:36:17;101425.66;;;20.72;100.00
26775;BME280;14362;51.902;7.626;2023-05-08T14:40:19;101412.84;;;20.59;100.00
26775;BME280;14362;51.902;7.626;2023-05-08T14:44:20;101411.94;;;20.74;100.00
26775;BME280;14362;51.902;7.626;2023-05-08T14:48:23;101407.00;;;20.71;100.00
26775;BME280;14362;51.902;7.626;2023-05-08T14:52:26;101410.16;;;20.66;100.00
26775;BME280;14362;51.902;7.626;2023-05-08T14:56:28;101404.88;;;20.64;100.00
26775;BME280;14362;51.902;7.626;2023-05-08T15:00:29;101411.34;;;20.65;100.00
26775;BME280;14362;51.902;7.626;2023-05-08T15:04:32;101409.25;;;20.62;100.00
26775;BME280;14362;51.902;7.626;2023-05-08T15:08:35;101409.84;;;20.71;100.00
26775;BME280;14362;51.902;7.626;2023-05-08T15:12:36;101409.38;;;20.88;100.00
26775;BME280;14362;51.902;7.626;2023-05-08T15:16:37;101414.69;;;20.70;100.00
26775;BME280;14362;51.902;7.626;2023-05-08T15:20:40;101402.66;;;20.77;100.00
26775;BME280;14362;51.902;7.626;2023-05-08T15:24:42;101399.09;;;20.80;100.00
26775;BME280;14362;51.902;7.626;2023-05-08T15:28:43;101400.44;;;20.67;100.00
26775;BME280;14362;51.902;7.626;2023-05-08T15:32:45;101400.41;;;20.63;100.00
26775;BME280;14362;51.902;7.626;2023-05-08T15:36:48;101399.56;;;20.63;100.00
26775;BME280;14362;51.902;7.626;2023-05-08T15:40:49;101400.06;;;20.68;100.00
26775;BME280;14362;51.902;7.626;2023-05-08T15:44:54;101391.13;;;20.66;100.00
26775;BME280;14362;51.902;7.626;2023-05-08T15:48:55;101390.00;;;20.71;100.00
26775;BME280;14362;51.902;7.626;2023-05-08T15:52:58;101386.72;;;20.69;100.00
26775;BME280;14362;51.902;7.626;2023-05-08T15:57:00;101382.63;;;20.66;100.00
26775;BME280;14362;51.902;7.626;2023-05-08T16:01:01;101402.91;;;20.68;100.00
26775;BME280;14362;51.902;7.626;2023-05-08T16:05:04;101396.66;;;20.60;100.00
26775;BME280;14362;51.902;7.626;2023-05-08T16:09:07;101398.22;;;20.57;100.00
26775;BME280;14362;51.902;7.626;2023-05-08T16:13:09;101393.44;;;20.61;100.00
26775;BME280;14362;51.902;7.626;2023-05-08T16:17:10;101395.63;;;20.49;100.00
26775;BME280;14362;51.902;7.626;2023-05-08T16:21:11;101397.59;;;20.45;100.00
26775;BME280;14362;51.902;7.626;2023-05-08T16:25:14;101399.97;;;20.43;100.00
26775;BME280;14362;51.902;7.626;2023-05-08T16:29:15;101385.13;;;20.49;100.00
26775;BME280;14362;51.902;7.626;2023-05-08T16:33:17;101387.97;;;20.49;100.00
26775;BME280;14362;51.902;7.626;2023-05-08T16:37:19;101380.97;;;20.43;100.00
26775;BME280;14362;51.902;7.626;2023-05-08T16:41:22;101370.91;;;20.46;100.00
26775;BME280;14362;51.902;7.626;2023-05-08T16:45:23;101370.09;;;20.26;100.00
26775;BME280;14362;51.902;7.626;2023-05-08T16:49:25;101370.72;;;20.16;100.00
26775;BME280;14362;51.902;7.626;2023-05-08T16:53:26;101376.38;;;20.16;100.00
26775;BME280;14362;51.902;7.626;2023-05-08T16:57:29;101358.28;;;20.02;100.00
26775;BME280;14362;51.902;7.626;2023-05-08T17:01:30;101368.44;;;19.87;100.00
26775;BME280;14362;51.902;7.626;2023-05-08T17:05:32;101366.50;;;19.91;100.00
26775;BME280;14362;51.902;7.626;2023-05-08T17:09:34;101372.16;;;19.91;100.00
26775;BME280;14362;51.902;7.626;2023-05-08T17:13:37;101374.63;;;19.93;100.00
26775;BME280;14362;51.902;7.626;2023-05-08T17:17:38;101369.84;;;19.78;100.00
26775;BME280;14362;51.902;7.626;2023-05-08T17:21:40;101362.94;;;19.75;100.00
26775;BME280;14362;51.902;7.626;2023-05-08T17:25:41;101368.19;;;19.77;100.00
26775;BME280;14362;51.902;7.626;2023-05-08T17:29:44;101368.34;;;19.65;100.00
26775;BME280;14362;51.902;7.626;2023-05-08T17:33:46;101371.09;;;19.61;100.00
26775;BME280;14362;51.902;7.626;2023-05-08T17:37:47;101368.56;;;19.57;100.00
26775;BME280;14362;51.902;7.626;2023-05-08T17:41:49;101365.56;;;19.50;100.00
26775;BME280;14362;51.902;7.626;2023-05-08T17:45:52;101368.22;;;19.43;100.00
26775;BME280;14362;51.902;7.626;2023-05-08T17:49:53;101376.91;;;19.34;100.00
26775;BME280;14362;51.902;7.626;2023-05-08T17:53:55;101372.19;;;19.23;100.00
26775;BME280;14362;51.902;7.626;2023-05-08T17:57:56;101368.81;;;19.17;100.00
26775;BME280;14362;51.902;7.626;2023-05-08T18:01:59;101367.31;;;19.08;100.00
26775;BME280;14362;51.902;7.626;2023-05-08T18:06:00;101367.97;;;19.01;100.00
26775;BME280;14362;51.902;7.626;2023-05-08T18:10:02;101364.78;;;18.87;100.00
26775;BME280;14362;51.902;7.626;2023-05-08T18:14:04;101365.78;;;18.79;100.00
26775;BME280;14362;51.902;7.626;2023-05-08T18:18:07;101359.13;;;18.72;100.00
26775;BME280;14362;51.902;7.626;2023-05-08T18:22:08;101371.91;;;18.66;100.00
26775;BME280;14362;51.902;7.626;2023-05-08T18:26:12;101359.69;;;18.62;100.00
26775;BME280;14362;51.902;7.626;2023-05-08T18:30:13;101368.34;;;18.53;100.00
26775;BME280;14362;51.902;7.626;2023-05-08T18:34:17;101368.13;;;18.47;100.00
26775;BME280;14362;51.902;7.626;2023-05-08T18:38:18;101369.69;;;18.44;100.00
26775;BME280;14362;51.902;7.626;2023-05-08T18:42:20;101363.03;;;18.37;100.00
26775;BME280;14362;51.902;7.626;2023-05-08T18:46:21;101366.09;;;18.32;100.00
26775;BME280;14362;51.902;7.626;2023-05-08T18:50:24;101367.41;;;18.22;100.00
26775;BME280;14362;51.902;7.626;2023-05-08T18:54:25;101362.00;;;18.17;100.00
26775;BME280;14362;51.902;7.626;2023-05-08T18:58:27;101371.09;;;18.11;100.00
26775;BME280;14362;51.902;7.626;2023-05-08T19:02:28;101366.88;;;18.05;100.00
26775;BME280;14362;51.902;7.626;2023-05-08T19:06:31;101363.50;;;17.99;100.00
26775;BME280;14362;51.902;7.626;2023-05-08T19:10:33;101377.06;;;17.94;100.00
26775;BME280;14362;51.902;7.626;2023-05-08T19:14:34;101376.97;;;17.90;100.00
26775;BME280;14362;51.902;7.626;2023-05-08T19:18:36;101378.38;;;17.84;100.00
26775;BME280;14362;51.902;7.626;2023-05-08T19:22:38;101371.34;;;17.78;100.00
26775;BME280;14362;51.902;7.626;2023-05-08T19:26:40;101369.22;;;17.75;100.00
26775;BME280;14362;51.902;7.626;2023-05-08T19:30:41;101369.50;;;17.70;100.00
26775;BME280;14362;51.902;7.626;2023-05-08T19:34:43;101377.81;;;17.67;100.00
26775;BME280;14362;51.902;7.626;2023-05-08T19:38:45;101373.25;;;17.62;100.00
26775;BME280;14362;51.902;7.626;2023-05-08T19:42:47;101380.78;;;17.58;100.00
26775;BME280;14362;51.902;7.626;2023-05-08T19:46:49;101376.69;;;17.56;100.00
26775;BME280;14362;51.902;7.626;2023-05-08T19:50:50;101378.94;;;17.50;100.00
26775;BME280;14362;51.902;7.626;2023-05-08T19:54:53;101366.34;;;17.48;100.00
26775;BME280;14362;51.902;7.626;2023-05-08T19:58:56;101370.34;;;17.47;100.00
26775;BME280;14362;51.902;7.626;2023-05-08T20:02:58;101359.81;;;17.44;100.00
26775;BME280;14362;51.902;7.626;2023-05-08T20:06:59;101358.50;;;17.42;100.00
26775;BME280;14362;51.902;7.626;2023-05-08T20:11:02;101353.09;;;17.37;100.00
26775;BME280;14362;51.902;7.626;2023-05-08T20:15:07;101355.00;;;17.33;100.00
26775;BME280;14362;51.902;7.626;2023-05-08T20:19:08;101356.53;;;17.30;100.00
26775;BME280;14362;51.902;7.626;2023-05-08T20:23:10;101345.50;;;17.25;100.00
26775;BME280;14362;51.902;7.626;2023-05-08T20:27:13;101344.19;;;17.23;100.00
26775;BME280;14362;51.902;7.626;2023-05-08T20:31:14;101353.47;;;17.23;100.00
26775;BME280;14362;51.902;7.626;2023-05-08T20:35:16;101354.97;;;17.21;100.00
26775;BME280;14362;51.902;7.626;2023-05-08T20:39:17;101346.78;;;17.16;100.00
26775;BME280;14362;51.902;7.626;2023-05-08T20:43:20;101349.59;;;17.16;100.00
26775;BME280;14362;51.902;7.626;2023-05-08T20:47:21;101347.03;;;17.11;100.00
26775;BME280;14362;51.902;7.626;2023-05-08T20:51:23;101349.34;;;17.09;100.00
26775;BME280;14362;51.902;7.626;2023-05-08T20:55:25;101339.50;;;17.03;100.00